Fulton, Ohio
Current Conditions -  °F | °C
As of 5:53 AM on Tuesday 21 Oct 2014 (Local Time) from KMNN Reporting Station
Light Rain Light Rain  
Wind Chill: 44°   Ceiling: 600
Heat Index: 48°   Visibility: 3mi
Dew Point: 46°   Wind: 9mph
Humidity: 93%   Direction: 320°NW
Pressure: 29.9"   Gusts: NA
Location:  40.46°N, 82.83°W
Report Text: KMNN 210953Z AUTO 32008KT 3SM -RA BR OVC006 09/08 A2990 RMK AO2 RAB15 SLP127 P0003 T00890078 TSNO
Loading
Personal Weather Stations






























Interactive Weather Map
Tropical Storm Tracking
New forecast layout! Learn more

10-Day Weather Forecast

Advertisements
Track Severe Weather on mobile